Time;durP1;ratioP1;P1;durP2;ratioP2;P2;SDS_P1;SDS_P2;PMS_P1;PMS_P2;Temp;Humidity;BMP_temperature;BMP_pressure;BME280_temperature;BME280_humidity;BME280_pressure;Samples;Min_cycle;Max_cycle;Signal;HPM_P1;HPM_P2
2021/07/14 00:00:45;;;;;;;41.17;7.45;;;;;;;;;;4952832;29;20054;-69
2021/07/14 00:03:49;;;;;;;33.40;7.20;;;;;;;;;;4952843;29;20051;-69
2021/07/14 00:06:54;;;;;;;40.10;7.90;;;;;;;;;;4952869;29;20046;-69
2021/07/14 00:09:58;;;;;;;31.55;6.93;;;;;;;;;;4952891;29;20140;-69
2021/07/14 00:23:09;;;;;;;44.22;6.50;;;;;;;;;;4952858;29;20059;-69
2021/07/14 00:26:13;;;;;;;35.28;6.03;;;;;;;;;;4952663;29;20047;-69
2021/07/14 00:29:19;;;;;;;28.77;6.72;;;;;;;;;;4952634;28;20051;-69
2021/07/14 00:32:24;;;;;;;33.67;5.80;;;;;;;;;;4952546;29;20042;-69
2021/07/14 00:35:28;;;;;;;33.88;5.47;;;;;;;;;;4952554;29;20038;-69
2021/07/14 00:38:32;;;;;;;28.33;4.55;;;;;;;;;;4953004;29;20108;-69
2021/07/14 00:41:36;;;;;;;20.95;4.25;;;;;;;;;;4952211;29;20055;-69
2021/07/14 00:44:41;;;;;;;28.90;4.82;;;;;;;;;;4952519;29;20506;-69
2021/07/14 00:47:49;;;;;;;21.60;4.18;;;;;;;;;;4952500;29;20046;-69
2021/07/14 00:50:54;;;;;;;20.60;4.13;;;;;;;;;;4952585;29;20058;-70
2021/07/14 00:53:59;;;;;;;18.63;3.83;;;;;;;;;;4953216;28;20419;-71
2021/07/14 00:57:04;;;;;;;17.98;3.80;;;;;;;;;;4955842;29;20066;-69
2021/07/14 01:00:09;;;;;;;21.70;3.35;;;;;;;;;;4955855;29;20063;-69
2021/07/14 01:03:14;;;;;;;23.48;3.53;;;;;;;;;;4943830;29;20066;-69
2021/07/14 01:06:33;;;;;;;18.52;3.58;;;;;;;;;;4955750;29;20507;-70
2021/07/14 01:09:53;;;;;;;16.85;3.80;;;;;;;;;;4955879;29;20046;-70
2021/07/14 01:13:11;;;;;;;14.10;3.15;;;;;;;;;;4955426;29;20058;-70
2021/07/14 01:16:17;;;;;;;14.23;3.35;;;;;;;;;;4955449;29;20053;-70
2021/07/14 01:19:39;;;;;;;22.42;3.90;;;;;;;;;;4955574;29;20037;-71
2021/07/14 01:22:50;;;;;;;21.77;3.25;;;;;;;;;;4954550;29;20057;-70
2021/07/14 01:26:04;;;;;;;20.00;3.60;;;;;;;;;;4955453;29;20050;-70
2021/07/14 01:29:11;;;;;;;16.45;3.28;;;;;;;;;;4955603;29;20062;-70
2021/07/14 01:32:17;;;;;;;16.40;2.75;;;;;;;;;;4954329;29;20042;-70
2021/07/14 01:35:29;;;;;;;13.10;2.50;;;;;;;;;;4954717;29;20058;-71
2021/07/14 01:38:35;;;;;;;17.77;3.00;;;;;;;;;;4955081;29;20054;-71
2021/07/14 01:41:40;;;;;;;12.60;2.83;;;;;;;;;;4954917;29;20123;-70
2021/07/14 01:44:45;;;;;;;14.18;2.75;;;;;;;;;;4955112;29;20065;-71
2021/07/14 01:47:50;;;;;;;13.98;2.83;;;;;;;;;;4955091;29;20050;-70
2021/07/14 01:50:54;;;;;;;14.18;2.83;;;;;;;;;;4954860;29;20051;-70
2021/07/14 01:54:03;;;;;;;17.00;2.88;;;;;;;;;;4954265;29;20054;-70
2021/07/14 01:57:09;;;;;;;17.45;3.38;;;;;;;;;;4954860;29;20058;-70
2021/07/14 02:00:14;;;;;;;21.27;3.00;;;;;;;;;;4954066;29;20657;-70
2021/07/14 02:06:36;;;;;;;24.40;3.90;;;;;;;;;;4954562;28;20046;-70
2021/07/14 02:09:41;;;;;;;22.55;3.83;;;;;;;;;;4954852;29;20058;-70
2021/07/14 02:12:47;;;;;;;24.30;3.88;;;;;;;;;;4954784;29;20058;-70
2021/07/14 02:15:53;;;;;;;19.95;4.00;;;;;;;;;;4954456;29;20038;-70
2021/07/14 02:18:59;;;;;;;20.00;4.15;;;;;;;;;;4942883;29;20430;-69
2021/07/14 02:22:04;;;;;;;25.55;4.80;;;;;;;;;;4954062;29;20054;-69
2021/07/14 02:25:09;;;;;;;23.35;4.80;;;;;;;;;;4954153;29;20050;-69
2021/07/14 02:28:14;;;;;;;26.23;5.82;;;;;;;;;;4953186;29;20053;-70
2021/07/14 02:31:18;;;;;;;19.95;4.90;;;;;;;;;;4954255;29;20046;-70
2021/07/14 02:34:22;;;;;;;25.30;4.70;;;;;;;;;;4953308;29;20046;-70
2021/07/14 02:37:33;;;;;;;21.90;4.78;;;;;;;;;;4953009;29;20050;-70
2021/07/14 02:40:44;;;;;;;19.63;3.40;;;;;;;;;;4954002;29;20506;-70
2021/07/14 02:43:51;;;;;;;29.13;4.90;;;;;;;;;;4953817;29;20058;-71
2021/07/14 02:46:58;;;;;;;25.33;4.13;;;;;;;;;;4953866;29;20502;-70
2021/07/14 02:50:05;;;;;;;27.15;4.28;;;;;;;;;;4953790;29;20392;-70
2021/07/14 02:53:19;;;;;;;25.40;4.90;;;;;;;;;;4953767;29;20058;-69
2021/07/14 02:56:24;;;;;;;22.00;4.05;;;;;;;;;;4952800;29;20045;-69
2021/07/14 02:59:30;;;;;;;26.92;4.63;;;;;;;;;;4953564;29;20046;-70
2021/07/14 03:02:36;;;;;;;23.75;4.32;;;;;;;;;;4952477;29;20054;-68
2021/07/14 03:05:40;;;;;;;23.52;4.18;;;;;;;;;;4953483;29;20038;-69
2021/07/14 03:08:47;;;;;;;15.90;4.07;;;;;;;;;;4953401;29;20046;-70
2021/07/14 03:11:51;;;;;;;22.40;4.45;;;;;;;;;;4953176;29;20050;-70
2021/07/14 03:14:59;;;;;;;21.83;4.90;;;;;;;;;;4953364;29;20038;-70
2021/07/14 03:18:05;;;;;;;21.38;3.95;;;;;;;;;;4952985;28;20525;-71
2021/07/14 03:21:09;;;;;;;22.10;3.90;;;;;;;;;;4953071;29;20043;-71
2021/07/14 03:24:14;;;;;;;26.67;4.57;;;;;;;;;;4953322;29;20058;-70
2021/07/14 03:27:20;;;;;;;30.13;5.00;;;;;;;;;;4953085;29;20051;-70
2021/07/14 03:30:24;;;;;;;24.40;4.35;;;;;;;;;;4953511;29;20399;-70
2021/07/14 03:33:32;;;;;;;27.58;5.60;;;;;;;;;;4953116;29;20046;-69
2021/07/14 03:36:37;;;;;;;23.83;4.88;;;;;;;;;;4953202;29;20398;-70
2021/07/14 03:39:43;;;;;;;31.98;4.80;;;;;;;;;;4941347;29;20046;-70
2021/07/14 03:42:51;;;;;;;18.63;4.68;;;;;;;;;;4952727;29;20506;-70
2021/07/14 03:45:56;;;;;;;17.98;4.50;;;;;;;;;;4953320;29;20138;-70
2021/07/14 03:49:01;;;;;;;16.92;4.13;;;;;;;;;;4952218;29;20530;-71
2021/07/14 03:52:06;;;;;;;20.40;4.43;;;;;;;;;;4952962;29;20038;-71
2021/07/14 03:55:11;;;;;;;20.90;3.60;;;;;;;;;;4953020;29;20059;-69
2021/07/14 03:58:15;;;;;;;20.92;4.28;;;;;;;;;;4952440;29;20506;-71
2021/07/14 04:01:19;;;;;;;20.10;3.45;;;;;;;;;;4952805;29;20054;-70
2021/07/14 04:04:24;;;;;;;23.10;4.25;;;;;;;;;;4952753;29;20054;-70
2021/07/14 04:07:28;;;;;;;25.08;4.38;;;;;;;;;;4951995;29;20050;-71
2021/07/14 04:10:33;;;;;;;21.88;4.70;;;;;;;;;;4952887;29;20058;-70
2021/07/14 04:13:37;;;;;;;23.00;5.40;;;;;;;;;;4952174;29;20043;-70
2021/07/14 04:16:42;;;;;;;23.90;5.07;;;;;;;;;;4952832;29;20506;-69
2021/07/14 04:19:46;;;;;;;29.00;4.93;;;;;;;;;;4952852;29;20054;-70
2021/07/14 04:22:51;;;;;;;21.33;4.75;;;;;;;;;;4952687;29;20058;-70
2021/07/14 04:25:57;;;;;;;19.75;4.18;;;;;;;;;;4952713;29;20046;-70
2021/07/14 04:29:01;;;;;;;19.48;4.78;;;;;;;;;;4952700;28;20058;-70
2021/07/14 04:32:06;;;;;;;28.92;6.03;;;;;;;;;;4955315;29;20395;-71
2021/07/14 04:35:10;;;;;;;30.40;5.93;;;;;;;;;;4956288;29;20051;-70
2021/07/14 04:38:15;;;;;;;25.50;5.10;;;;;;;;;;4956323;29;20054;-71
2021/07/14 04:41:19;;;;;;;21.38;4.50;;;;;;;;;;4956345;29;20047;-69
2021/07/14 04:44:33;;;;;;;24.13;6.05;;;;;;;;;;4956149;29;20054;-69
2021/07/14 04:47:37;;;;;;;21.48;5.38;;;;;;;;;;4956047;29;20058;-70
2021/07/14 04:50:45;;;;;;;26.05;4.93;;;;;;;;;;4956064;29;20506;-71
2021/07/14 04:53:49;;;;;;;20.42;5.32;;;;;;;;;;4955989;29;20050;-70
2021/07/14 04:56:53;;;;;;;23.33;6.70;;;;;;;;;;4955978;29;20050;-70
2021/07/14 04:59:57;;;;;;;19.55;5.10;;;;;;;;;;4955889;29;20047;-71
2021/07/14 05:03:02;;;;;;;24.65;5.40;;;;;;;;;;4954811;29;20058;-71
2021/07/14 05:06:06;;;;;;;28.27;5.95;;;;;;;;;;4955847;29;20047;-70
2021/07/14 05:09:11;;;;;;;21.55;4.65;;;;;;;;;;4955718;29;20070;-70
2021/07/14 05:12:18;;;;;;;21.42;4.90;;;;;;;;;;4955573;29;20042;-72
2021/07/14 05:15:23;;;;;;;26.88;5.80;;;;;;;;;;4955503;29;20047;-71
2021/07/14 05:18:27;;;;;;;21.88;4.95;;;;;;;;;;4955365;29;20058;-71
2021/07/14 05:21:32;;;;;;;20.27;4.40;;;;;;;;;;4954661;29;20050;-70
2021/07/14 05:24:36;;;;;;;22.25;7.07;;;;;;;;;;4954556;29;20058;-69
2021/07/14 05:27:40;;;;;;;26.23;8.68;;;;;;;;;;4954339;29;20059;-70
2021/07/14 05:30:45;;;;;;;21.50;5.47;;;;;;;;;;4955056;29;20051;-71
2021/07/14 05:33:49;;;;;;;22.33;5.30;;;;;;;;;;4954486;29;20038;-71
2021/07/14 05:36:54;;;;;;;24.98;4.45;;;;;;;;;;4955209;29;20063;-71
2021/07/14 05:39:58;;;;;;;25.45;5.20;;;;;;;;;;4954623;28;20066;-71
2021/07/14 05:43:03;;;;;;;19.40;4.55;;;;;;;;;;4954858;29;20062;-70
2021/07/14 05:46:07;;;;;;;21.83;4.78;;;;;;;;;;4954833;29;20042;-70
2021/07/14 05:49:11;;;;;;;22.90;4.28;;;;;;;;;;4954899;29;20046;-70
2021/07/14 05:52:16;;;;;;;29.15;4.90;;;;;;;;;;4953928;29;20046;-70
2021/07/14 05:55:20;;;;;;;27.75;4.88;;;;;;;;;;4954635;29;20062;-70
2021/07/14 05:58:24;;;;;;;18.52;4.25;;;;;;;;;;4954619;29;20471;-70
2021/07/14 06:01:29;;;;;;;32.60;6.15;;;;;;;;;;4954542;29;20391;-70
2021/07/14 06:04:33;;;;;;;35.50;6.63;;;;;;;;;;4953780;29;20050;-72
2021/07/14 06:07:38;;;;;;;28.67;4.63;;;;;;;;;;4954392;29;20042;-70
2021/07/14 06:10:42;;;;;;;30.80;5.38;;;;;;;;;;4954288;29;20043;-70
2021/07/14 06:13:47;;;;;;;26.27;4.97;;;;;;;;;;4954642;29;20190;-70
2021/07/14 06:16:51;;;;;;;23.20;4.55;;;;;;;;;;4953585;29;20054;-70
2021/07/14 06:19:56;;;;;;;36.13;5.85;;;;;;;;;;4954292;29;20046;-70
2021/07/14 06:23:00;;;;;;;28.88;5.40;;;;;;;;;;4954407;29;20554;-70
2021/07/14 06:26:04;;;;;;;23.70;5.10;;;;;;;;;;4954445;29;20046;-73
2021/07/14 06:29:09;;;;;;;29.00;5.80;;;;;;;;;;4954075;29;20510;-70
2021/07/14 06:32:14;;;;;;;28.98;4.53;;;;;;;;;;4954074;29;20042;-70
2021/07/14 06:35:19;;;;;;;27.73;4.55;;;;;;;;;;4954278;29;20042;-71
2021/07/14 06:38:24;;;;;;;32.47;5.85;;;;;;;;;;4954415;29;20043;-70
2021/07/14 06:41:28;;;;;;;38.80;4.60;;;;;;;;;;4953869;29;20042;-70
2021/07/14 06:44:36;;;;;;;34.50;5.47;;;;;;;;;;4953109;29;20062;-71
2021/07/14 06:47:41;;;;;;;31.35;5.82;;;;;;;;;;4954034;29;20046;-71
2021/07/14 06:50:45;;;;;;;34.58;4.95;;;;;;;;;;4953754;29;20522;-71
2021/07/14 06:53:50;;;;;;;30.40;4.68;;;;;;;;;;4953527;29;20058;-70
2021/07/14 06:56:54;;;;;;;30.77;4.60;;;;;;;;;;4952866;29;20062;-69
2021/07/14 06:59:58;;;;;;;38.40;4.85;;;;;;;;;;4953563;29;20042;-69
2021/07/14 07:03:03;;;;;;;23.90;4.47;;;;;;;;;;4952882;29;20059;-72
2021/07/14 07:06:07;;;;;;;28.17;4.00;;;;;;;;;;4952794;29;20054;-72
2021/07/14 07:09:12;;;;;;;21.38;3.90;;;;;;;;;;4953956;29;20403;-71
2021/07/14 07:12:16;;;;;;;36.88;6.07;;;;;;;;;;4953301;29;20066;-69
2021/07/14 07:15:21;;;;;;;18.02;3.95;;;;;;;;;;4953614;29;20403;-70
2021/07/14 07:18:25;;;;;;;35.72;5.30;;;;;;;;;;4952610;29;20042;-71
2021/07/14 07:21:31;;;;;;;21.63;3.70;;;;;;;;;;4953058;29;20050;-70
2021/07/14 07:24:35;;;;;;;26.08;4.63;;;;;;;;;;4953433;29;20521;-71
2021/07/14 07:27:40;;;;;;;23.73;4.30;;;;;;;;;;4952990;29;20407;-71
2021/07/14 07:30:45;;;;;;;22.58;3.60;;;;;;;;;;4953171;29;20509;-71
2021/07/14 07:33:49;;;;;;;20.27;3.20;;;;;;;;;;4953347;29;20399;-72
2021/07/14 07:36:53;;;;;;;21.63;3.47;;;;;;;;;;4953394;29;20042;-71
2021/07/14 07:39:58;;;;;;;27.95;4.22;;;;;;;;;;4953409;29;20047;-70
2021/07/14 07:43:03;;;;;;;15.50;3.40;;;;;;;;;;4953377;29;20127;-70
2021/07/14 07:46:07;;;;;;;20.52;3.60;;;;;;;;;;4953265;29;20391;-72
2021/07/14 07:49:11;;;;;;;22.35;3.58;;;;;;;;;;4953166;29;20046;-71
2021/07/14 07:52:18;;;;;;;26.45;4.97;;;;;;;;;;4952915;29;20050;-71
2021/07/14 07:55:22;;;;;;;26.38;4.28;;;;;;;;;;4952948;29;20111;-71
2021/07/14 07:58:27;;;;;;;22.48;3.33;;;;;;;;;;4953846;29;20050;-71
2021/07/14 08:01:31;;;;;;;30.02;4.40;;;;;;;;;;4953320;29;20058;-70
2021/07/14 08:04:36;;;;;;;18.65;3.42;;;;;;;;;;4956481;28;20543;-71
2021/07/14 08:07:40;;;;;;;13.35;2.80;;;;;;;;;;4957053;29;20050;-72
2021/07/14 08:10:45;;;;;;;15.98;3.30;;;;;;;;;;4956977;29;20050;-70
2021/07/14 08:13:49;;;;;;;20.13;3.88;;;;;;;;;;4956154;29;20050;-71
2021/07/14 08:16:53;;;;;;;14.52;3.05;;;;;;;;;;4956686;29;20046;-71
2021/07/14 08:19:57;;;;;;;20.48;4.38;;;;;;;;;;4956372;29;20042;-71
2021/07/14 08:23:01;;;;;;;16.90;3.30;;;;;;;;;;4956341;29;20058;-74
2021/07/14 08:26:06;;;;;;;18.85;3.40;;;;;;;;;;4955937;29;20042;-71
2021/07/14 08:29:10;;;;;;;16.73;3.13;;;;;;;;;;4956375;29;20058;-72
2021/07/14 08:32:14;;;;;;;18.05;3.30;;;;;;;;;;4956286;29;20046;-71
2021/07/14 08:35:18;;;;;;;23.52;3.35;;;;;;;;;;4956334;29;20673;-72
2021/07/14 08:38:23;;;;;;;24.63;3.63;;;;;;;;;;4956166;29;20368;-71
2021/07/14 08:41:28;;;;;;;19.92;3.50;;;;;;;;;;4956378;29;20054;-70
2021/07/14 08:44:34;;;;;;;15.35;3.33;;;;;;;;;;4955342;29;20123;-74
2021/07/14 08:47:39;;;;;;;23.13;3.50;;;;;;;;;;4956064;29;20062;-70
2021/07/14 08:50:44;;;;;;;18.42;3.17;;;;;;;;;;4955916;29;20119;-70
2021/07/14 08:53:48;;;;;;;18.10;3.58;;;;;;;;;;4955642;29;20394;-69
2021/07/14 08:56:53;;;;;;;23.52;3.20;;;;;;;;;;4955814;29;20049;-71
2021/07/14 08:59:57;;;;;;;18.58;4.07;;;;;;;;;;4955308;29;20050;-70
2021/07/14 09:03:03;;;;;;;18.55;4.20;;;;;;;;;;4955690;29;20443;-70
2021/07/14 09:06:08;;;;;;;13.77;3.05;;;;;;;;;;4955043;29;20046;-69
2021/07/14 09:09:12;;;;;;;19.30;3.38;;;;;;;;;;4955430;29;20050;-69
2021/07/14 09:12:17;;;;;;;19.65;3.70;;;;;;;;;;4954486;29;20038;-69
2021/07/14 09:15:25;;;;;;;11.05;2.83;;;;;;;;;;4954324;28;20058;-69
2021/07/14 09:18:31;;;;;;;23.23;3.75;;;;;;;;;;4955665;29;20501;-71
2021/07/14 09:21:40;;;;;;;17.55;2.92;;;;;;;;;;4955155;29;20660;-70
2021/07/14 09:24:44;;;;;;;17.48;3.30;;;;;;;;;;4955330;29;20058;-71
2021/07/14 09:27:58;;;;;;;20.67;3.50;;;;;;;;;;4955229;29;20054;-71
2021/07/14 09:31:02;;;;;;;17.38;3.22;;;;;;;;;;4955179;29;20635;-72
2021/07/14 09:34:20;;;;;;;13.73;3.00;;;;;;;;;;4955225;29;20049;-70
2021/07/14 09:37:25;;;;;;;23.75;3.38;;;;;;;;;;4955528;29;20062;-70
2021/07/14 09:40:29;;;;;;;13.65;2.80;;;;;;;;;;4955212;29;20546;-70
2021/07/14 09:43:35;;;;;;;19.98;3.30;;;;;;;;;;4955081;29;20677;-69
2021/07/14 09:46:40;;;;;;;10.63;3.20;;;;;;;;;;4955313;29;20046;-69
2021/07/14 09:49:49;;;;;;;22.35;3.72;;;;;;;;;;4954989;29;20050;-69
2021/07/14 09:53:20;;;;;;;14.23;3.78;;;;;;;;;;4954916;29;20055;-70
2021/07/14 09:56:27;;;;;;;;;;;;;;;;;;4965574;28;20046;-69
2021/07/14 09:59:31;;;;;;;26.73;3.13;;;;;;;;;;4954702;29;19918;-69
2021/07/14 10:02:36;;;;;;;24.25;3.55;;;;;;;;;;4954534;29;20042;-71
2021/07/14 10:05:41;;;;;;;22.45;3.38;;;;;;;;;;4954624;29;20407;-70
2021/07/14 10:08:50;;;;;;;19.73;3.67;;;;;;;;;;4954523;29;20514;-70
2021/07/14 10:11:54;;;;;;;12.75;3.15;;;;;;;;;;4953464;29;20054;-69
2021/07/14 10:14:59;;;;;;;17.98;2.75;;;;;;;;;;4954837;29;20641;-70
2021/07/14 10:18:04;;;;;;;18.38;2.72;;;;;;;;;;4954786;29;20050;-69
2021/07/14 10:21:09;;;;;;;18.92;3.15;;;;;;;;;;4954498;29;20047;-69
2021/07/14 10:24:15;;;;;;;19.33;3.60;;;;;;;;;;4954191;29;20084;-70
2021/07/14 10:27:19;;;;;;;15.30;3.30;;;;;;;;;;4953081;28;20051;-70
2021/07/14 10:30:24;;;;;;;23.50;3.72;;;;;;;;;;4954163;29;20050;-70
2021/07/14 10:33:29;;;;;;;19.30;3.20;;;;;;;;;;4953564;29;20042;-70
2021/07/14 10:36:37;;;;;;;10.65;2.55;;;;;;;;;;4954142;29;20046;-70
2021/07/14 10:39:41;;;;;;;16.42;2.80;;;;;;;;;;4953969;29;20046;-70
2021/07/14 10:42:47;;;;;;;19.77;3.10;;;;;;;;;;4954192;29;20050;-71
2021/07/14 10:45:52;;;;;;;20.65;3.40;;;;;;;;;;4953932;29;20050;-71
2021/07/14 10:48:57;;;;;;;17.90;3.63;;;;;;;;;;4953799;29;20392;-70
2021/07/14 10:52:01;;;;;;;15.48;2.92;;;;;;;;;;4953363;29;20054;-69
2021/07/14 10:55:10;;;;;;;12.20;3.00;;;;;;;;;;4953895;29;20042;-70
2021/07/14 10:58:17;;;;;;;13.52;2.90;;;;;;;;;;4953909;29;20042;-71
2021/07/14 11:01:40;;;;;;;21.25;3.55;;;;;;;;;;4953852;29;20050;-70
2021/07/14 11:04:52;;;;;;;19.48;2.75;;;;;;;;;;4952616;29;20055;-69
2021/07/14 11:07:57;;;;;;;17.13;3.28;;;;;;;;;;4953690;29;20395;-70
2021/07/14 11:11:01;;;;;;;20.63;3.65;;;;;;;;;;4953556;29;20046;-71
2021/07/14 11:14:09;;;;;;;13.98;2.88;;;;;;;;;;4953577;29;20076;-71
2021/07/14 11:17:13;;;;;;;18.48;2.78;;;;;;;;;;4953738;29;20499;-70
2021/07/14 11:20:18;;;;;;;15.77;3.55;;;;;;;;;;4953097;29;20059;-71
2021/07/14 11:23:25;;;;;;;17.83;3.63;;;;;;;;;;4953287;29;20046;-70
2021/07/14 11:26:29;;;;;;;14.25;2.75;;;;;;;;;;4953123;29;20046;-71
2021/07/14 11:29:39;;;;;;;14.55;2.97;;;;;;;;;;4953151;29;20054;-70
2021/07/14 11:32:43;;;;;;;16.00;3.00;;;;;;;;;;4953248;29;20042;-70
2021/07/14 11:35:52;;;;;;;17.95;3.20;;;;;;;;;;4953385;29;20042;-69
2021/07/14 11:38:56;;;;;;;19.23;2.92;;;;;;;;;;4952940;28;20403;-69
2021/07/14 11:42:17;;;;;;;21.95;3.92;;;;;;;;;;4953175;29;20054;-70
2021/07/14 11:45:36;;;;;;;23.38;3.67;;;;;;;;;;4952186;29;20069;-69
2021/07/14 11:48:45;;;;;;;17.50;3.35;;;;;;;;;;4952925;29;20361;-70
2021/07/14 11:51:49;;;;;;;19.35;3.42;;;;;;;;;;4953071;29;20046;-70
2021/07/14 11:55:14;;;;;;;16.75;3.70;;;;;;;;;;4953446;29;20051;-71
2021/07/14 11:58:38;;;;;;;16.33;3.30;;;;;;;;;;4952471;29;20050;-62
2021/07/14 12:01:46;;;;;;;12.13;2.72;;;;;;;;;;4952763;29;20047;-61
2021/07/14 12:05:04;;;;;;;16.85;2.78;;;;;;;;;;4952865;29;20074;-62
2021/07/14 12:08:13;;;;;;;11.32;2.70;;;;;;;;;;4953163;29;20116;-61
2021/07/14 12:11:19;;;;;;;16.70;3.38;;;;;;;;;;4952721;29;20050;-61
2021/07/14 12:14:25;;;;;;;13.40;3.05;;;;;;;;;;4952789;29;20067;-62
2021/07/14 12:17:30;;;;;;;15.43;2.97;;;;;;;;;;4952694;29;20046;-61
2021/07/14 12:20:34;;;;;;;19.02;4.03;;;;;;;;;;4952483;29;20047;-62
2021/07/14 12:23:38;;;;;;;19.17;3.47;;;;;;;;;;4951865;29;20434;-62
2021/07/14 12:27:02;;;;;;;15.57;2.78;;;;;;;;;;4952489;29;20038;-62
2021/07/14 12:30:15;;;;;;;11.52;2.35;;;;;;;;;;4952966;29;20050;-62
2021/07/14 12:33:20;;;;;;;16.42;3.10;;;;;;;;;;4952545;29;20042;-61
2021/07/14 12:36:24;;;;;;;11.40;2.38;;;;;;;;;;4952658;29;20054;-67
2021/07/14 12:39:30;;;;;;;14.23;2.42;;;;;;;;;;4952503;29;20038;-61
2021/07/14 12:42:35;;;;;;;10.50;2.08;;;;;;;;;;4952451;29;20415;-61
2021/07/14 12:45:40;;;;;;;7.40;2.05;;;;;;;;;;4952719;29;20058;-62
2021/07/14 12:48:44;;;;;;;13.25;2.83;;;;;;;;;;4950996;29;20365;-62
2021/07/14 12:52:04;;;;;;;9.20;1.98;;;;;;;;;;4955737;29;20042;-63
2021/07/14 12:55:09;;;;;;;10.70;2.30;;;;;;;;;;4956094;29;20387;-60
2021/07/14 12:58:17;;;;;;;17.05;2.92;;;;;;;;;;4956075;29;20042;-61
2021/07/14 13:01:22;;;;;;;12.88;2.90;;;;;;;;;;4955822;29;20050;-61
2021/07/14 13:04:26;;;;;;;17.08;2.70;;;;;;;;;;4955172;29;20132;-62
2021/07/14 13:07:31;;;;;;;10.40;2.45;;;;;;;;;;4955493;29;20046;-64
2021/07/14 13:10:36;;;;;;;14.48;2.95;;;;;;;;;;4954655;29;20059;-61
2021/07/14 13:13:42;;;;;;;12.10;2.70;;;;;;;;;;4955636;29;20051;-62
2021/07/14 13:16:46;;;;;;;13.00;3.08;;;;;;;;;;4955801;29;20050;-62
2021/07/14 13:19:50;;;;;;;21.25;3.83;;;;;;;;;;4955056;29;20055;-61
2021/07/14 13:23:01;;;;;;;17.35;2.70;;;;;;;;;;4955699;29;20050;-61
2021/07/14 13:26:05;;;;;;;11.00;2.92;;;;;;;;;;4956809;29;20058;-60
2021/07/14 13:29:10;;;;;;;16.58;3.17;;;;;;;;;;4955954;29;20423;-62
2021/07/14 13:32:15;;;;;;;18.45;2.60;;;;;;;;;;4955798;29;20399;-61
2021/07/14 13:35:20;;;;;;;12.65;2.40;;;;;;;;;;4955789;29;20059;-62
2021/07/14 13:38:30;;;;;;;18.85;2.85;;;;;;;;;;4955245;29;20054;-62
2021/07/14 13:41:35;;;;;;;13.07;2.97;;;;;;;;;;4955427;29;20052;-62
2021/07/14 13:44:42;;;;;;;21.65;3.78;;;;;;;;;;4955141;29;20058;-62
2021/07/14 13:47:54;;;;;;;14.30;2.80;;;;;;;;;;4955163;29;20379;-61
2021/07/14 13:50:59;;;;;;;14.05;2.30;;;;;;;;;;4953912;29;20050;-61
2021/07/14 13:54:15;;;;;;;34.95;3.78;;;;;;;;;;4955039;29;20047;-62
2021/07/14 13:57:26;;;;;;;18.00;2.95;;;;;;;;;;4954174;29;20047;-62
2021/07/14 14:00:30;;;;;;;12.95;3.03;;;;;;;;;;4954145;28;20046;-60
2021/07/14 14:03:35;;;;;;;21.52;3.22;;;;;;;;;;4954692;29;20062;-61
2021/07/14 14:06:45;;;;;;;18.00;2.60;;;;;;;;;;4954726;29;20048;-60
2021/07/14 14:09:51;;;;;;;12.77;2.72;;;;;;;;;;4954762;29;20046;-73
2021/07/14 14:13:01;;;;;;;25.80;2.83;;;;;;;;;;4953949;29;20054;-76
2021/07/14 14:16:06;;;;;;;10.85;2.97;;;;;;;;;;4954900;29;20046;-78
2021/07/14 14:19:10;;;;;;;16.08;2.88;;;;;;;;;;4954956;29;20046;-74
2021/07/14 14:22:18;;;;;;;16.50;3.53;;;;;;;;;;4954647;29;20399;-76
2021/07/14 14:25:26;;;;;;;12.88;2.63;;;;;;;;;;4954620;29;20046;-74
2021/07/14 14:28:31;;;;;;;16.70;2.97;;;;;;;;;;4954241;29;20198;-76
2021/07/14 14:31:35;;;;;;;18.75;2.80;;;;;;;;;;4953557;29;20046;-75
2021/07/14 14:34:40;;;;;;;13.18;2.60;;;;;;;;;;4954866;29;20065;-77
2021/07/14 14:37:45;;;;;;;16.60;3.17;;;;;;;;;;4954804;29;20505;-78
2021/07/14 14:40:50;;;;;;;16.95;3.03;;;;;;;;;;4955921;29;20046;-80
2021/07/14 14:43:55;;;;;;;12.13;2.42;;;;;;;;;;4954455;29;20066;-75
2021/07/14 14:46:59;;;;;;;15.43;3.50;;;;;;;;;;4954275;29;20045;-76
2021/07/14 14:50:04;;;;;;;17.40;3.38;;;;;;;;;;4953596;29;20046;-78
2021/07/14 14:53:08;;;;;;;18.73;2.90;;;;;;;;;;4955013;29;20054;-73
2021/07/14 14:56:13;;;;;;;19.45;4.05;;;;;;;;;;4954384;29;20042;-72
2021/07/14 14:59:19;;;;;;;12.43;3.22;;;;;;;;;;4955387;29;20050;-76
2021/07/14 15:02:25;;;;;;;15.63;2.70;;;;;;;;;;4954830;29;20407;-79
2021/07/14 15:05:30;;;;;;;15.20;2.50;;;;;;;;;;4954908;29;20062;-77
2021/07/14 15:08:34;;;;;;;11.95;2.30;;;;;;;;;;4953541;29;20399;-74
2021/07/14 15:11:38;;;;;;;19.65;2.83;;;;;;;;;;4953992;29;20054;-74
2021/07/14 15:14:42;;;;;;;13.50;3.15;;;;;;;;;;4954212;29;20038;-76
2021/07/14 15:17:47;;;;;;;13.68;3.05;;;;;;;;;;4954635;29;20046;-78
2021/07/14 15:20:51;;;;;;;20.55;2.95;;;;;;;;;;4954321;29;20042;-75
2021/07/14 15:23:57;;;;;;;13.27;3.20;;;;;;;;;;4953656;29;20065;-75
2021/07/14 15:30:26;;;;;;;21.48;3.08;;;;;;;;;;4953681;29;20431;-79
2021/07/14 15:33:31;;;;;;;15.48;2.47;;;;;;;;;;4953800;29;20054;-78
2021/07/14 15:36:35;;;;;;;13.77;3.03;;;;;;;;;;4954203;29;20050;-79
2021/07/14 15:39:40;;;;;;;11.50;2.33;;;;;;;;;;4954435;29;20403;-78
2021/07/14 15:42:45;;;;;;;13.35;2.65;;;;;;;;;;4953529;29;20514;-76
2021/07/14 15:45:50;;;;;;;10.75;2.67;;;;;;;;;;4942555;29;20376;-79
2021/07/14 15:48:55;;;;;;;16.50;3.15;;;;;;;;;;4953920;29;20130;-78
2021/07/14 15:51:59;;;;;;;14.77;2.95;;;;;;;;;;4953348;29;20058;-77
2021/07/14 15:55:05;;;;;;;14.93;3.28;;;;;;;;;;4953211;29;20058;-76
2021/07/14 15:58:09;;;;;;;16.83;3.80;;;;;;;;;;4952323;29;20066;-76
2021/07/14 16:01:13;;;;;;;15.20;3.65;;;;;;;;;;4952970;29;20046;-77
2021/07/14 16:04:18;;;;;;;13.15;3.25;;;;;;;;;;4953109;29;20054;-76
2021/07/14 16:07:22;;;;;;;10.27;2.65;;;;;;;;;;4953315;29;20042;-75
2021/07/14 16:10:28;;;;;;;15.60;2.92;;;;;;;;;;4952843;29;20050;-76
2021/07/14 16:13:32;;;;;;;15.57;3.05;;;;;;;;;;4940683;29;20052;-73
2021/07/14 16:16:37;;;;;;;23.08;2.90;;;;;;;;;;4952249;29;20054;-77
2021/07/14 16:19:44;;;;;;;16.35;2.35;;;;;;;;;;4952710;29;20050;-75
2021/07/14 16:22:51;;;;;;;10.05;2.80;;;;;;;;;;4952458;29;20054;-77
2021/07/14 16:25:55;;;;;;;12.88;2.95;;;;;;;;;;4956423;28;20058;-81
2021/07/14 16:29:00;;;;;;;18.13;3.22;;;;;;;;;;4956728;29;20054;-78
2021/07/14 16:32:05;;;;;;;16.30;3.13;;;;;;;;;;4956971;29;20054;-79
2021/07/14 16:35:10;;;;;;;11.73;3.00;;;;;;;;;;4956081;29;20054;-80
2021/07/14 16:38:15;;;;;;;12.73;3.45;;;;;;;;;;4955921;29;20058;-79
2021/07/14 16:41:20;;;;;;;16.08;3.10;;;;;;;;;;4954682;29;20102;-75
2021/07/14 16:44:25;;;;;;;15.95;2.75;;;;;;;;;;4955833;29;20062;-77
2021/07/14 16:47:29;;;;;;;19.20;3.35;;;;;;;;;;4955757;29;20042;-74
2021/07/14 16:50:33;;;;;;;10.00;2.40;;;;;;;;;;4955786;29;20045;-76
2021/07/14 16:53:38;;;;;;;18.23;3.30;;;;;;;;;;4954448;29;20042;-76
2021/07/14 16:56:42;;;;;;;10.45;2.80;;;;;;;;;;4953440;29;20055;-73
2021/07/14 16:59:46;;;;;;;9.23;2.30;;;;;;;;;;4955969;29;20673;-79
2021/07/14 17:02:51;;;;;;;26.48;6.00;;;;;;;;;;4955624;29;20051;-81
2021/07/14 17:05:55;;;;;;;15.40;3.08;;;;;;;;;;4956681;29;20777;-81
2021/07/14 17:08:59;;;;;;;22.15;2.92;;;;;;;;;;4957030;29;20046;-81
2021/07/14 17:12:04;;;;;;;10.10;2.75;;;;;;;;;;4958330;29;20050;-81
2021/07/14 17:15:09;;;;;;;10.18;2.65;;;;;;;;;;4958421;29;20054;-81
2021/07/14 17:18:13;;;;;;;15.20;2.65;;;;;;;;;;4956920;29;20119;-82
2021/07/14 17:21:18;;;;;;;14.68;3.38;;;;;;;;;;4967115;28;20050;-82
2021/07/14 17:24:22;;;;;;;15.05;2.63;;;;;;;;;;4956774;29;20050;-80
2021/07/14 17:27:27;;;;;;;11.73;2.22;;;;;;;;;;4955302;29;20046;-80
2021/07/14 17:30:31;;;;;;;11.57;2.65;;;;;;;;;;4956457;29;20046;-81
2021/07/14 17:33:35;;;;;;;12.18;2.28;;;;;;;;;;4957461;29;20050;-81
2021/07/14 17:36:40;;;;;;;13.15;2.42;;;;;;;;;;4955680;28;20518;-82
2021/07/14 17:39:45;;;;;;;8.13;3.33;;;;;;;;;;4955239;29;20050;-79
2021/07/14 17:42:50;;;;;;;17.10;2.38;;;;;;;;;;4956039;29;20051;-80
2021/07/14 17:45:54;;;;;;;13.63;5.35;;;;;;;;;;4955561;29;20048;-81
2021/07/14 17:49:01;;;;;;;12.88;2.33;;;;;;;;;;4956920;29;20054;-83
2021/07/14 17:52:06;;;;;;;10.77;1.88;;;;;;;;;;4956762;29;20042;-83
2021/07/14 17:55:11;;;;;;;14.95;2.55;;;;;;;;;;4956769;29;20057;-81
2021/07/14 17:58:16;;;;;;;10.38;2.67;;;;;;;;;;4955253;29;20054;-81
2021/07/14 18:01:20;;;;;;;17.65;2.42;;;;;;;;;;4955150;29;20042;-79
2021/07/14 18:04:24;;;;;;;9.45;2.22;;;;;;;;;;4955545;29;20141;-83
2021/07/14 18:07:30;;;;;;;10.75;2.50;;;;;;;;;;4955336;29;20377;-79
2021/07/14 18:10:34;;;;;;;10.40;2.40;;;;;;;;;;4954271;29;20046;-78
2021/07/14 18:13:38;;;;;;;15.65;3.55;;;;;;;;;;4954470;29;20046;-82
2021/07/14 18:16:43;;;;;;;18.80;2.78;;;;;;;;;;4955102;29;20050;-81
2021/07/14 18:19:48;;;;;;;19.42;2.83;;;;;;;;;;4956904;29;20046;-85
2021/07/14 18:22:52;;;;;;;17.00;2.60;;;;;;;;;;4956679;29;20467;-71
2021/07/14 18:26:07;;;;;;;15.30;2.92;;;;;;;;;;4954018;29;20615;-70
2021/07/14 18:29:13;;;;;;;21.75;2.80;;;;;;;;;;4954336;29;20395;-69
2021/07/14 18:32:18;;;;;;;24.08;4.55;;;;;;;;;;4954105;29;20395;-68
2021/07/14 18:35:22;;;;;;;28.45;3.67;;;;;;;;;;4953047;29;20046;-68